Time;durP1;ratioP1;P1;durP2;ratioP2;P2;SDS_P1;SDS_P2;PMS_P1;PMS_P2;Temp;Humidity;BMP_temperature;BMP_pressure;BME280_temperature;BME280_humidity;BME280_pressure;Samples;Min_cycle;Max_cycle;Signal;HPM_P1;HPM_P2
2023/03/16 00:02:12;;;;;;;8.73;2.40;;;;;;;0.12;100.00;101823.94;5004939;28;20185;-44
2023/03/16 00:04:38;;;;;;;6.13;1.67;;;;;;;0.11;100.00;101828.34;4998882;28;20739;-47
2023/03/16 00:07:06;;;;;;;10.05;1.80;;;;;;;0.01;100.00;101828.97;5015111;23;20623;-42
2023/03/16 00:09:31;;;;;;;8.10;2.20;;;;;;;0.07;100.00;101822.97;5022462;28;20194;-42
2023/03/16 00:11:59;;;;;;;8.52;2.08;;;;;;;0.08;100.00;101827.38;5018609;28;20184;-43
2023/03/16 00:14:25;;;;;;;6.57;1.27;;;;;;;-0.10;100.00;101835.78;5022856;28;20293;-41
2023/03/16 00:16:50;;;;;;;6.95;1.95;;;;;;;-0.07;100.00;101831.44;5019252;28;20240;-43
2023/03/16 00:19:16;;;;;;;8.25;1.83;;;;;;;-0.08;100.00;101829.69;5019592;28;20277;-39
2023/03/16 00:21:41;;;;;;;5.13;1.50;;;;;;;-0.09;100.00;101825.28;5019125;28;20193;-42
2023/03/16 00:24:11;;;;;;;10.02;2.53;;;;;;;-0.39;100.00;101833.38;5015327;28;20230;-42
2023/03/16 00:26:37;;;;;;;4.85;2.17;;;;;;;-0.34;100.00;101825.59;5014449;28;20531;-42
2023/03/16 00:29:02;;;;;;;8.43;2.13;;;;;;;-0.39;100.00;101828.13;5013565;28;20176;-41
2023/03/16 00:31:28;;;;;;;5.90;1.58;;;;;;;-0.53;100.00;101830.41;5021793;28;20528;-40
2023/03/16 00:33:54;;;;;;;10.57;1.73;;;;;;;-0.58;100.00;101832.06;5016147;28;20203;-44
2023/03/16 00:36:21;;;;;;;13.07;2.63;;;;;;;-0.77;100.00;101829.84;5024751;28;20207;-41
2023/03/16 00:38:48;;;;;;;8.38;1.50;;;;;;;-0.76;100.00;101827.25;5019937;28;20184;-45
2023/03/16 00:41:15;;;;;;;7.63;1.60;;;;;;;-0.92;100.00;101831.25;4999912;28;20227;-45
2023/03/16 00:43:42;;;;;;;8.95;1.73;;;;;;;-1.01;100.00;101831.00;5015220;28;20203;-44
2023/03/16 00:46:13;;;;;;;8.27;1.73;;;;;;;-1.02;100.00;101834.50;5016357;28;20273;-46
2023/03/16 00:48:42;;;;;;;12.07;1.98;;;;;;;-1.03;100.00;101837.97;5018688;28;20238;-47
2023/03/16 00:51:11;;;;;;;6.93;2.13;;;;;;;-1.10;100.00;101839.53;5022027;28;20661;-45
2023/03/16 00:53:38;;;;;;;9.30;1.77;;;;;;;-1.32;100.00;101838.09;5018343;28;20215;-46
2023/03/16 00:56:05;;;;;;;7.07;1.67;;;;;;;-1.38;100.00;101848.44;5019466;28;20188;-45
2023/03/16 00:58:36;;;;;;;5.80;1.48;;;;;;;-1.38;100.00;101851.06;5005975;28;20282;-45
2023/03/16 01:01:06;;;;;;;7.57;2.00;;;;;;;-1.37;100.00;101847.59;5020287;28;20180;-47
2023/03/16 01:03:32;;;;;;;13.27;1.77;;;;;;;-1.29;100.00;101845.16;5005822;28;20715;-46
2023/03/16 01:06:04;;;;;;;7.88;1.58;;;;;;;-1.33;100.00;101844.22;5024424;28;20177;-47
2023/03/16 01:08:31;;;;;;;8.30;1.40;;;;;;;-1.45;100.00;101833.38;5023381;28;20287;-47
2023/03/16 01:11:02;;;;;;;10.15;1.92;;;;;;;-1.55;100.00;101847.09;5023678;28;20184;-46
2023/03/16 01:13:28;;;;;;;7.32;1.83;;;;;;;-1.54;100.00;101849.75;5018198;28;20212;-46
2023/03/16 01:15:53;;;;;;;10.85;2.15;;;;;;;-1.59;100.00;101848.75;5019969;28;20183;-47
2023/03/16 01:18:19;;;;;;;12.90;2.17;;;;;;;-1.67;100.00;101848.53;5021852;28;20184;-46
2023/03/16 01:20:49;;;;;;;7.25;1.52;;;;;;;-1.79;100.00;101840.31;5024246;28;20222;-46
2023/03/16 01:23:16;;;;;;;11.63;2.53;;;;;;;-1.84;100.00;101839.28;5020658;28;20343;-46
2023/03/16 01:25:42;;;;;;;8.35;2.25;;;;;;;-1.86;100.00;101840.97;5024489;28;20179;-46
2023/03/16 01:28:09;;;;;;;8.35;1.92;;;;;;;-1.73;100.00;101848.38;5022298;28;20168;-45
2023/03/16 01:30:34;;;;;;;9.65;1.83;;;;;;;-1.60;100.00;101849.59;5005661;28;20176;-47
2023/03/16 01:33:00;;;;;;;5.93;1.70;;;;;;;-1.51;100.00;101847.25;5002242;28;20663;-45
2023/03/16 01:35:27;;;;;;;5.38;1.42;;;;;;;-1.74;100.00;101846.59;5013278;28;20181;-45
2023/03/16 01:37:53;;;;;;;10.05;1.75;;;;;;;-1.85;100.00;101837.50;5003918;28;20220;-47
2023/03/16 01:40:23;;;;;;;11.43;2.05;;;;;;;-1.89;100.00;101847.03;5017040;28;20638;-47
2023/03/16 01:42:59;;;;;;;9.98;2.15;;;;;;;-1.97;100.00;101852.91;5019369;28;20179;-47
2023/03/16 01:46:03;;;;;;;9.77;1.90;;;;;;;-1.99;100.00;101851.97;5001209;28;20195;-46
2023/03/16 01:48:38;;;;;;;7.63;1.85;;;;;;;-1.95;100.00;101838.09;5000897;28;20183;-45
2023/03/16 01:51:29;;;;;;;9.73;1.92;;;;;;;-1.91;100.00;101830.34;5004736;28;20250;-45
2023/03/16 01:54:13;;;;;;;13.18;2.10;;;;;;;-1.97;100.00;101838.06;5004949;28;20600;-47
2023/03/16 01:56:47;;;;;;;10.10;2.15;;;;;;;-2.01;100.00;101833.56;5015227;28;20212;-46
2023/03/16 01:59:17;;;;;;;7.95;1.85;;;;;;;-1.92;100.00;101839.06;5020089;28;20176;-45
2023/03/16 02:01:46;;;;;;;12.68;2.22;;;;;;;-1.97;100.00;101845.03;4999310;28;20637;-45
2023/03/16 02:04:41;;;;;;;6.07;1.70;;;;;;;-1.82;100.00;101832.34;5002212;28;20215;-46
2023/03/16 02:07:08;;;;;;;14.25;2.35;;;;;;;-1.90;100.00;101829.50;5006456;28;20199;-45
2023/03/16 02:09:45;;;;;;;9.73;2.22;;;;;;;-1.87;100.00;101829.59;5008857;28;20632;-47
2023/03/16 02:12:17;;;;;;;8.25;1.77;;;;;;;-1.82;100.00;101847.22;5006238;28;20211;-45
2023/03/16 02:14:45;;;;;;;8.23;1.75;;;;;;;-1.77;100.00;101836.00;4999982;28;20299;-46
2023/03/16 02:17:13;;;;;;;9.80;3.42;;;;;;;-1.92;100.00;101840.81;5000226;28;20204;-47
2023/03/16 02:19:52;;;;;;;14.15;2.05;;;;;;;-2.01;100.00;101837.91;5001464;28;20207;-45
2023/03/16 02:22:18;;;;;;;9.20;2.35;;;;;;;-2.04;100.00;101841.31;5004033;28;20192;-46
2023/03/16 02:24:44;;;;;;;11.30;2.22;;;;;;;-1.98;100.00;101841.50;5003479;28;20207;-46
2023/03/16 02:27:22;;;;;;;10.05;2.40;;;;;;;-1.83;100.00;101840.19;5000007;28;20271;-46
2023/03/16 02:30:17;;;;;;;12.35;2.65;;;;;;;-1.78;100.00;101830.69;5001830;28;20191;-45
2023/03/16 02:33:03;;;;;;;7.65;2.15;;;;;;;-1.81;100.00;101834.13;5014387;28;20192;-46
2023/03/16 02:35:30;;;;;;;10.75;2.03;;;;;;;-1.83;100.00;101833.19;5000218;28;20299;-47
2023/03/16 02:37:56;;;;;;;7.20;2.05;;;;;;;-1.75;100.00;101838.66;5003411;28;20191;-47
2023/03/16 02:40:32;;;;;;;11.07;2.17;;;;;;;-1.82;100.00;101831.44;5007255;28;20662;-46
2023/03/16 02:43:03;;;;;;;9.63;2.40;;;;;;;-1.85;100.00;101829.63;4999787;28;20703;-46
2023/03/16 02:45:47;;;;;;;12.25;2.42;;;;;;;-1.93;100.00;101839.03;4999898;28;21061;-46
2023/03/16 02:48:22;;;;;;;14.32;2.80;;;;;;;-1.80;100.00;101835.91;5001135;28;20271;-44
2023/03/16 02:50:51;;;;;;;10.60;1.90;;;;;;;-1.78;100.00;101833.31;5002471;28;20678;-45
2023/03/16 02:53:18;;;;;;;5.50;1.80;;;;;;;-1.81;100.00;101831.50;5019719;28;20251;-43
2023/03/16 02:55:45;;;;;;;8.10;2.25;;;;;;;-1.83;100.00;101841.06;5000247;28;20181;-47
2023/03/16 02:58:11;;;;;;;13.05;2.55;;;;;;;-1.79;100.00;101832.44;5001714;28;20274;-45
2023/03/16 03:00:37;;;;;;;6.25;2.15;;;;;;;-1.73;100.00;101835.25;5020812;28;20184;-43
2023/03/16 03:03:04;;;;;;;10.45;2.28;;;;;;;-1.78;100.00;101847.34;5000251;28;20195;-47
2023/03/16 03:05:31;;;;;;;7.20;1.95;;;;;;;-1.69;100.00;101849.34;5000242;28;20187;-45
2023/03/16 03:07:57;;;;;;;6.80;2.10;;;;;;;-1.72;100.00;101837.00;5021195;28;20257;-44
2023/03/16 03:10:25;;;;;;;6.70;2.17;;;;;;;-1.67;100.00;101842.41;5004490;28;20322;-48
2023/03/16 03:12:50;;;;;;;5.97;2.45;;;;;;;-1.64;100.00;101842.50;5017196;28;20185;-47
2023/03/16 03:15:17;;;;;;;8.82;2.42;;;;;;;-1.57;100.00;101844.44;5016207;28;20247;-45
2023/03/16 03:17:52;;;;;;;10.13;2.63;;;;;;;-1.53;100.00;101842.78;5002548;28;20217;-46
2023/03/16 03:20:20;;;;;;;10.35;2.38;;;;;;;-1.53;100.00;101851.56;4998671;28;20184;-46
2023/03/16 03:22:48;;;;;;;12.13;2.83;;;;;;;-1.46;100.00;101831.59;4994740;28;20173;-47
2023/03/16 03:25:16;;;;;;;8.30;2.25;;;;;;;-1.43;100.00;101842.19;5020755;28;20203;-46
2023/03/16 03:27:42;;;;;;;10.35;3.17;;;;;;;-1.40;100.00;101829.13;5005964;28;20188;-46
2023/03/16 03:30:12;;;;;;;11.27;3.03;;;;;;;-1.40;100.00;101826.50;4994739;28;20187;-44
2023/03/16 03:32:38;;;;;;;9.57;2.20;;;;;;;-1.37;100.00;101821.31;4998428;28;20177;-46
2023/03/16 03:35:05;;;;;;;5.60;2.13;;;;;;;-1.34;100.00;101837.16;5016148;28;20204;-46
2023/03/16 03:37:31;;;;;;;10.30;2.70;;;;;;;-1.33;100.00;101830.19;5009336;28;20219;-45
2023/03/16 03:39:56;;;;;;;7.32;2.42;;;;;;;-1.35;100.00;101822.25;5000224;28;20176;-46
2023/03/16 03:42:22;;;;;;;6.72;2.58;;;;;;;-1.39;100.00;101827.41;5011971;28;20655;-46
2023/03/16 03:44:50;;;;;;;12.65;2.63;;;;;;;-1.53;100.00;101833.16;5001960;28;20207;-46
2023/03/16 03:47:17;;;;;;;7.30;2.10;;;;;;;-1.51;100.00;101833.19;5016796;28;20184;-48
2023/03/16 03:49:42;;;;;;;9.00;2.40;;;;;;;-1.57;100.00;101846.19;5017025;28;20180;-46
2023/03/16 03:52:08;;;;;;;10.80;2.50;;;;;;;-1.51;100.00;101849.88;5000518;28;20179;-44
2023/03/16 03:54:33;;;;;;;8.05;1.98;;;;;;;-1.47;100.00;101835.06;5002553;28;20216;-43
2023/03/16 03:57:04;;;;;;;6.10;2.40;;;;;;;-1.52;100.00;101834.94;5017623;28;20554;-46
2023/03/16 03:59:31;;;;;;;10.77;2.78;;;;;;;-1.50;100.00;101835.00;5000517;28;20180;-47
2023/03/16 04:01:56;;;;;;;10.50;2.78;;;;;;;-1.50;100.00;101835.88;5013045;28;20202;-43
2023/03/16 04:04:25;;;;;;;8.20;2.20;;;;;;;-1.45;100.00;101838.63;5000325;28;20304;-46
2023/03/16 04:06:51;;;;;;;10.32;3.05;;;;;;;-1.55;100.00;101844.47;4998719;28;20268;-47
2023/03/16 04:09:16;;;;;;;9.82;3.05;;;;;;;-1.49;100.00;101826.25;5000155;28;20181;-47
2023/03/16 04:11:44;;;;;;;6.85;2.60;;;;;;;-1.43;100.00;101829.03;5016982;28;20647;-46
2023/03/16 04:14:09;;;;;;;11.85;2.97;;;;;;;-1.52;100.00;101847.19;5003129;28;20213;-46
2023/03/16 04:16:37;;;;;;;17.55;2.90;;;;;;;-1.46;100.00;101839.47;4999078;28;20255;-45
2023/03/16 04:19:03;;;;;;;12.13;3.58;;;;;;;-1.37;100.00;101839.72;5001637;28;20627;-46
2023/03/16 04:21:28;;;;;;;9.57;2.50;;;;;;;-1.39;100.00;101838.78;4997044;28;20237;-47
2023/03/16 04:23:54;;;;;;;10.25;3.20;;;;;;;-1.43;100.00;101836.91;4997941;28;20208;-45
2023/03/16 04:26:24;;;;;;;11.30;3.90;;;;;;;-1.35;100.00;101845.03;5000959;28;20175;-44
2023/03/16 04:28:51;;;;;;;13.70;3.30;;;;;;;-1.40;100.00;101844.91;4997602;28;20182;-44
2023/03/16 04:31:18;;;;;;;10.57;3.20;;;;;;;-1.42;100.00;101841.34;5001172;28;20176;-45
2023/03/16 04:33:45;;;;;;;14.73;3.53;;;;;;;-1.38;100.00;101845.81;4997756;28;20303;-47
2023/03/16 04:36:11;;;;;;;12.38;3.80;;;;;;;-1.42;100.00;101846.59;5016056;28;20255;-46
2023/03/16 04:38:37;;;;;;;10.65;4.15;;;;;;;-1.31;100.00;101858.28;5001265;28;20191;-46
2023/03/16 04:41:04;;;;;;;13.75;3.70;;;;;;;-1.25;100.00;101847.94;5000087;28;20180;-44
2023/03/16 04:43:34;;;;;;;11.48;3.90;;;;;;;-1.24;100.00;101851.47;5003786;28;20196;-45
2023/03/16 04:46:05;;;;;;;14.23;4.55;;;;;;;-1.19;100.00;101852.47;4993649;28;20208;-45
2023/03/16 04:48:32;;;;;;;15.52;4.15;;;;;;;-1.16;100.00;101847.31;4997161;28;20223;-47
2023/03/16 04:51:00;;;;;;;16.63;4.10;;;;;;;-1.15;100.00;101835.03;5001726;28;20698;-47
2023/03/16 04:53:31;;;;;;;17.05;5.30;;;;;;;-1.17;100.00;101834.09;4992882;28;20195;-47
2023/03/16 04:56:01;;;;;;;14.93;4.93;;;;;;;-1.14;100.00;101842.94;5016409;28;20276;-46
2023/03/16 04:58:28;;;;;;;12.93;4.72;;;;;;;-1.12;100.00;101843.00;5009514;28;20258;-47
2023/03/16 05:00:55;;;;;;;18.88;4.97;;;;;;;-1.10;100.00;101843.91;5008080;28;20180;-46
2023/03/16 05:03:24;;;;;;;10.88;4.35;;;;;;;-1.13;100.00;101847.38;5010922;28;20235;-46
2023/03/16 05:05:50;;;;;;;20.58;4.53;;;;;;;-1.11;100.00;101839.53;4996896;28;20207;-47
2023/03/16 05:08:16;;;;;;;16.10;4.93;;;;;;;-1.14;100.00;101849.94;4997861;28;20188;-45
2023/03/16 05:10:46;;;;;;;17.88;4.68;;;;;;;-1.14;100.00;101844.69;5001655;28;20269;-45
2023/03/16 05:13:12;;;;;;;15.45;4.70;;;;;;;-1.14;100.00;101847.31;5016941;28;20223;-47
2023/03/16 05:15:38;;;;;;;17.55;4.65;;;;;;;-1.16;100.00;101842.03;4995947;28;20667;-46
2023/03/16 05:18:25;;;;;;;16.63;4.63;;;;;;;-1.15;100.00;101845.56;5001180;28;20179;-46
2023/03/16 05:20:54;;;;;;;15.20;4.45;;;;;;;-1.12;100.00;101851.75;4998065;28;20214;-47
2023/03/16 05:23:21;;;;;;;21.02;4.90;;;;;;;-1.12;100.00;101864.03;5001863;28;20592;-45
2023/03/16 05:25:52;;;;;;;13.30;4.43;;;;;;;-1.11;100.00;101863.19;4989782;28;20181;-48
2023/03/16 05:28:20;;;;;;;10.25;4.50;;;;;;;-1.10;100.00;101859.69;4999343;28;20187;-46
2023/03/16 05:31:08;;;;;;;13.20;4.53;;;;;;;-1.10;100.00;101859.69;4999175;28;20187;-46
2023/03/16 05:33:38;;;;;;;16.83;4.72;;;;;;;-1.05;100.00;101858.06;5013880;28;20716;-47
2023/03/16 05:36:08;;;;;;;15.65;5.20;;;;;;;-1.01;100.00;101856.41;5014265;28;20176;-48
2023/03/16 05:38:35;;;;;;;15.63;5.00;;;;;;;-0.98;100.00;101865.28;5002097;28;20199;-45
2023/03/16 05:41:03;;;;;;;13.02;5.22;;;;;;;-0.91;100.00;101872.47;5003576;28;20226;-47
2023/03/16 05:43:54;;;;;;;17.73;5.97;;;;;;;-0.87;100.00;101873.47;5014538;28;20221;-48
2023/03/16 05:46:24;;;;;;;13.70;4.80;;;;;;;-0.85;100.00;101864.75;5004700;28;20168;-46
2023/03/16 05:48:51;;;;;;;13.32;5.10;;;;;;;-0.79;100.00;101881.53;4988956;28;20196;-48
2023/03/16 05:51:18;;;;;;;15.52;5.43;;;;;;;-0.74;100.00;101877.28;5002497;28;20169;-48
2023/03/16 05:53:45;;;;;;;25.92;5.15;;;;;;;-0.71;100.00;101872.09;5001437;28;20300;-46
2023/03/16 05:56:19;;;;;;;13.52;5.80;;;;;;;-0.69;100.00;101883.56;5021862;28;20230;-45
2023/03/16 05:58:45;;;;;;;14.80;5.07;;;;;;;-0.66;100.00;101886.25;5005611;28;20561;-47
2023/03/16 06:01:12;;;;;;;14.90;4.95;;;;;;;-0.64;100.00;101877.53;5002210;28;20261;-47
2023/03/16 06:03:40;;;;;;;17.50;5.45;;;;;;;-0.59;100.00;101866.22;5000857;28;20201;-45
2023/03/16 06:06:08;;;;;;;10.93;5.10;;;;;;;-0.50;100.00;101866.47;5002096;28;20181;-47
2023/03/16 06:08:49;;;;;;;13.32;4.57;;;;;;;-0.45;100.00;101867.47;5034450;28;20219;-42
2023/03/16 06:11:17;;;;;;;13.27;4.70;;;;;;;-0.40;100.00;101860.56;5028922;28;20275;-38
2023/03/16 06:13:44;;;;;;;18.70;4.80;;;;;;;-0.37;100.00;101862.34;5010680;28;20251;-41
2023/03/16 06:16:13;;;;;;;15.27;4.88;;;;;;;-0.30;100.00;101864.31;4999158;28;20184;-41
2023/03/16 06:18:40;;;;;;;12.60;5.28;;;;;;;-0.23;100.00;101858.31;5007452;28;20230;-41
2023/03/16 06:21:06;;;;;;;15.38;4.30;;;;;;;-0.15;100.00;101856.75;4994769;28;20192;-42
2023/03/16 06:23:33;;;;;;;12.57;4.80;;;;;;;-0.02;100.00;101857.91;4994192;28;20196;-41
2023/03/16 06:25:59;;;;;;;16.23;5.00;;;;;;;0.11;100.00;101869.56;4986009;28;20197;-41
2023/03/16 06:28:28;;;;;;;14.48;4.93;;;;;;;0.19;100.00;101871.50;5009506;28;20766;-41
2023/03/16 06:30:56;;;;;;;11.10;4.68;;;;;;;0.19;100.00;101863.63;5012922;28;20783;-41
2023/03/16 06:33:24;;;;;;;13.43;5.15;;;;;;;0.27;100.00;101868.19;5005183;28;20249;-41
2023/03/16 06:35:50;;;;;;;11.30;4.47;;;;;;;0.35;100.00;101854.28;4987554;28;20189;-41
2023/03/16 06:38:25;;;;;;;19.13;4.72;;;;;;;0.59;100.00;101858.25;4994830;28;20209;-39
2023/03/16 06:40:58;;;;;;;15.23;4.65;;;;;;;0.64;100.00;101853.09;4995045;28;20215;-43
2023/03/16 06:43:23;;;;;;;15.00;4.18;;;;;;;0.63;100.00;101846.91;4990543;28;20205;-41
2023/03/16 06:45:50;;;;;;;14.90;4.53;;;;;;;0.73;100.00;101835.69;4990785;28;20170;-39
2023/03/16 06:48:15;;;;;;;15.68;4.15;;;;;;;0.80;100.00;101834.03;4989975;28;20671;-39
2023/03/16 06:50:44;;;;;;;11.45;4.43;;;;;;;0.81;100.00;101851.66;4996691;28;20189;-42
2023/03/16 06:53:10;;;;;;;10.63;4.30;;;;;;;0.79;100.00;101848.09;4981237;28;20180;-42
2023/03/16 06:55:36;;;;;;;12.68;4.20;;;;;;;0.81;100.00;101851.66;4991190;28;20568;-38
2023/03/16 06:58:02;;;;;;;12.35;3.85;;;;;;;0.81;100.00;101863.09;5000066;28;20208;-39
2023/03/16 07:00:29;;;;;;;15.52;4.70;;;;;;;0.84;100.00;101869.28;4998296;28;20173;-39
2023/03/16 07:02:55;;;;;;;14.95;4.35;;;;;;;0.88;100.00;101876.41;5000315;28;20586;-39
2023/03/16 07:05:21;;;;;;;14.40;4.38;;;;;;;0.94;100.00;101863.28;5001311;28;20188;-39
2023/03/16 07:07:48;;;;;;;13.35;3.90;;;;;;;0.94;100.00;101856.28;4995028;28;20190;-40
2023/03/16 07:10:16;;;;;;;8.88;4.15;;;;;;;1.00;100.00;101860.78;4996792;28;20189;-38
2023/03/16 07:12:42;;;;;;;12.30;4.45;;;;;;;1.05;100.00;101855.56;4999173;28;20184;-40
2023/03/16 07:15:09;;;;;;;10.48;4.25;;;;;;;1.11;100.00;101853.03;4991180;28;20201;-40
2023/03/16 07:17:35;;;;;;;14.75;4.15;;;;;;;1.14;100.00;101848.72;4980674;28;20215;-39
2023/03/16 07:20:04;;;;;;;10.93;4.03;;;;;;;1.25;100.00;101848.91;4998525;28;20220;-40
2023/03/16 07:22:31;;;;;;;12.85;4.00;;;;;;;1.37;100.00;101862.28;4997124;28;20541;-39
2023/03/16 07:24:58;;;;;;;15.63;4.20;;;;;;;1.46;100.00;101868.56;5000102;28;20293;-38
2023/03/16 07:27:27;;;;;;;13.23;3.78;;;;;;;1.49;100.00;101863.31;4997455;28;20187;-42
2023/03/16 07:29:54;;;;;;;10.18;3.80;;;;;;;1.49;100.00;101858.03;4990788;28;20279;-40
2023/03/16 07:32:20;;;;;;;8.07;3.50;;;;;;;1.52;100.00;101856.34;4999895;28;20607;-42
2023/03/16 07:34:46;;;;;;;13.38;6.32;;;;;;;1.71;100.00;101864.56;4996988;28;20728;-42
2023/03/16 07:37:13;;;;;;;13.07;3.90;;;;;;;1.71;100.00;101860.19;4996499;28;20593;-44
2023/03/16 07:39:40;;;;;;;11.13;3.05;;;;;;;1.80;100.00;101855.00;4998226;28;20179;-45
2023/03/16 07:42:14;;;;;;;8.27;3.28;;;;;;;1.82;100.00;101858.56;4983174;28;20202;-46
2023/03/16 07:44:51;;;;;;;13.77;3.30;;;;;;;1.97;100.00;101860.53;4999246;28;20234;-44
2023/03/16 07:47:17;;;;;;;13.93;3.10;;;;;;;2.11;100.00;101860.72;4991003;28;20216;-46
2023/03/16 07:49:43;;;;;;;11.63;3.13;;;;;;;2.19;100.00;101853.78;4991135;28;20169;-45
2023/03/16 07:52:12;;;;;;;7.22;2.83;;;;;;;2.23;100.00;101857.34;4987257;28;20228;-45
2023/03/16 07:54:39;;;;;;;5.32;2.78;;;;;;;2.17;100.00;101847.59;4987365;28;20267;-47
2023/03/16 07:57:07;;;;;;;6.03;2.70;;;;;;;2.22;100.00;101848.53;4981174;28;20197;-45
2023/03/16 07:59:38;;;;;;;8.50;2.90;;;;;;;2.23;100.00;101845.03;4998128;28;20231;-44
2023/03/16 08:02:04;;;;;;;10.32;2.95;;;;;;;2.24;100.00;101848.56;5002449;28;20655;-44
2023/03/16 08:04:30;;;;;;;12.55;2.70;;;;;;;2.31;100.00;101846.88;4987000;28;20281;-45
2023/03/16 08:06:59;;;;;;;7.53;2.75;;;;;;;2.33;100.00;101827.50;5001688;28;20356;-46
2023/03/16 08:09:28;;;;;;;10.85;2.60;;;;;;;2.47;100.00;101830.28;4977435;28;20264;-45
2023/03/16 08:11:54;;;;;;;6.50;2.53;;;;;;;2.54;98.64;101826.88;4997911;28;20287;-47
2023/03/16 08:14:20;;;;;;;9.95;3.08;;;;;;;2.64;97.77;101825.19;4998830;28;20233;-46
2023/03/16 08:17:08;;;;;;;5.65;2.90;;;;;;;2.70;96.17;101822.63;4992854;28;20309;-45
2023/03/16 08:19:34;;;;;;;7.68;2.50;;;;;;;2.86;95.48;101819.25;4996121;28;20676;-46
2023/03/16 08:22:02;;;;;;;11.43;2.80;;;;;;;3.00;94.65;101822.03;4992823;28;20188;-46
2023/03/16 08:24:37;;;;;;;6.95;2.30;;;;;;;3.14;93.32;101814.19;4982900;28;20204;-45
2023/03/16 08:27:04;;;;;;;5.20;2.22;;;;;;;3.17;92.54;101811.59;4977858;28;20227;-46
2023/03/16 08:29:33;;;;;;;8.00;2.40;;;;;;;3.14;91.41;101802.72;4979474;28;20609;-44
2023/03/16 08:31:59;;;;;;;4.32;2.15;;;;;;;3.14;90.19;101803.59;4980332;28;20285;-43
2023/03/16 08:34:30;;;;;;;7.45;2.22;;;;;;;3.20;89.49;101806.31;4985123;28;20204;-43
2023/03/16 08:36:56;;;;;;;8.70;2.58;;;;;;;3.31;88.40;101809.03;4994363;28;20209;-43
2023/03/16 08:39:22;;;;;;;7.57;2.53;;;;;;;3.39;88.10;101809.06;4998383;28;20236;-42
2023/03/16 08:41:48;;;;;;;6.60;2.58;;;;;;;3.38;87.18;101805.53;4994167;28;20185;-44
2023/03/16 08:44:29;;;;;;;7.90;2.30;;;;;;;3.55;86.42;101796.84;4985807;28;20220;-42
2023/03/16 08:46:55;;;;;;;10.45;2.50;;;;;;;3.63;85.90;101787.16;4997622;28;20272;-44
2023/03/16 08:49:22;;;;;;;7.10;2.50;;;;;;;3.62;85.03;101783.63;4995281;28;20267;-45
2023/03/16 08:51:56;;;;;;;9.32;2.63;;;;;;;3.75;83.99;101779.28;4979329;28;20187;-43
2023/03/16 08:54:22;;;;;;;9.77;3.50;;;;;;;3.76;83.13;101791.66;4995666;28;20205;-45
2023/03/16 08:56:48;;;;;;;12.95;3.80;;;;;;;3.94;83.12;101768.78;4995367;28;20751;-44
2023/03/16 08:59:13;;;;;;;9.07;3.60;;;;;;;3.97;82.49;101777.63;5000512;28;20589;-41
2023/03/16 09:01:39;;;;;;;8.10;3.40;;;;;;;4.02;81.85;101769.66;4996769;28;20195;-43
2023/03/16 09:04:04;;;;;;;6.30;2.83;;;;;;;4.05;80.81;101759.97;4997801;28;20226;-43
2023/03/16 09:06:31;;;;;;;6.28;3.00;;;;;;;3.98;79.97;101763.50;5000541;28;20195;-43
2023/03/16 09:08:57;;;;;;;10.00;2.88;;;;;;;4.21;79.66;101760.91;4996154;28;20177;-43
2023/03/16 09:11:27;;;;;;;8.57;2.50;;;;;;;4.19;79.04;101765.31;5002248;28;20228;-44
2023/03/16 09:13:52;;;;;;;7.10;2.17;;;;;;;4.14;78.67;101745.84;4998734;28;20211;-44
2023/03/16 09:16:18;;;;;;;6.88;2.25;;;;;;;4.20;78.22;101739.66;5001122;28;20558;-43
2023/03/16 09:18:44;;;;;;;5.85;2.13;;;;;;;4.20;77.76;101748.53;5003175;28;20185;-42
2023/03/16 09:21:12;;;;;;;3.55;2.05;;;;;;;4.32;77.26;101737.06;5001080;28;20204;-45
2023/03/16 09:23:37;;;;;;;4.22;2.25;;;;;;;4.31;76.93;101738.84;5001796;28;20220;-44
2023/03/16 09:26:06;;;;;;;6.75;2.05;;;;;;;4.23;76.23;101739.69;5000746;28;20177;-43
2023/03/16 09:28:34;;;;;;;4.47;2.10;;;;;;;4.30;76.27;101731.75;4999748;28;20169;-43
2023/03/16 09:31:01;;;;;;;5.60;2.67;;;;;;;4.32;76.21;101734.41;5001722;28;20193;-43
2023/03/16 09:33:28;;;;;;;6.70;2.45;;;;;;;4.23;75.57;101737.91;5002006;28;20197;-44
2023/03/16 09:35:56;;;;;;;6.97;2.72;;;;;;;4.24;75.10;101725.53;5006438;28;20262;-42
2023/03/16 09:38:25;;;;;;;6.82;2.30;;;;;;;4.25;75.09;101716.72;5004478;28;20216;-42
2023/03/16 09:40:57;;;;;;;6.35;2.55;;;;;;;4.23;74.83;101716.69;4996091;28;20522;-42
2023/03/16 09:43:42;;;;;;;4.93;1.92;;;;;;;4.29;74.52;101722.03;4999659;28;20227;-43
2023/03/16 09:46:13;;;;;;;7.95;2.00;;;;;;;4.38;74.22;101718.50;5001438;28;20214;-42
2023/03/16 09:48:39;;;;;;;6.63;2.47;;;;;;;4.45;74.46;101717.63;4999862;28;20189;-43
2023/03/16 09:51:17;;;;;;;6.28;2.40;;;;;;;4.56;74.12;101719.41;4999984;28;20173;-41
2023/03/16 09:53:45;;;;;;;4.28;1.95;;;;;;;4.64;73.58;101710.56;4998941;28;20224;-42
2023/03/16 09:56:35;;;;;;;7.68;2.25;;;;;;;4.76;72.55;101701.72;4995196;28;20192;-45
2023/03/16 09:59:07;;;;;;;5.72;2.03;;;;;;;5.07;71.48;101691.06;4998247;28;20557;-43
2023/03/16 10:01:51;;;;;;;8.43;2.33;;;;;;;5.08;70.60;101680.44;4999350;28;20254;-43
2023/03/16 10:04:46;;;;;;;7.82;2.15;;;;;;;5.03;69.81;101674.25;5001044;28;20205;-44
2023/03/16 10:07:47;;;;;;;6.40;2.00;;;;;;;5.05;69.14;101668.94;4997559;28;21004;-45
2023/03/16 10:10:13;;;;;;;5.18;1.98;;;;;;;5.15;69.00;101660.94;5001349;28;20189;-45
2023/03/16 10:12:44;;;;;;;4.75;1.65;;;;;;;5.13;68.69;101668.03;5001711;28;20181;-42
2023/03/16 10:15:15;;;;;;;5.50;2.10;;;;;;;5.28;68.93;101661.78;4997171;28;20707;-42
2023/03/16 10:17:50;;;;;;;4.78;1.75;;;;;;;5.37;68.48;101658.22;5000578;28;20611;-43
2023/03/16 10:20:32;;;;;;;6.40;2.10;;;;;;;5.63;68.17;101641.28;4999814;28;20191;-43
2023/03/16 10:23:00;;;;;;;3.28;1.63;;;;;;;5.77;67.57;101640.34;4998606;28;20193;-43
2023/03/16 10:25:42;;;;;;;3.65;1.70;;;;;;;5.71;66.83;101626.19;5001574;28;20272;-44
2023/03/16 10:31:40;;;;;;;6.07;1.90;;;;;;;5.87;66.01;101633.19;4982756;28;20630;-43
2023/03/16 10:34:07;;;;;;;4.10;1.60;;;;;;;5.81;64.69;101608.41;5000306;28;20209;-44
2023/03/16 10:36:40;;;;;;;4.00;1.98;;;;;;;5.96;64.66;101611.00;4998209;28;20270;-43
2023/03/16 10:39:09;;;;;;;5.30;1.80;;;;;;;5.94;64.23;101605.69;5000156;28;20264;-43
2023/03/16 10:41:40;;;;;;;5.25;1.70;;;;;;;5.77;63.81;101599.53;4997066;28;20196;-44
2023/03/16 10:44:27;;;;;;;4.15;1.67;;;;;;;5.91;63.69;101594.16;4981118;28;20205;-43
2023/03/16 10:47:04;;;;;;;6.30;1.73;;;;;;;6.05;63.37;101592.31;4990816;28;20181;-45
2023/03/16 10:49:40;;;;;;;3.85;1.50;;;;;;;6.33;63.04;101586.78;5001140;28;20189;-43
2023/03/16 10:52:12;;;;;;;5.93;1.75;;;;;;;6.58;63.20;101598.06;4986219;28;20176;-43
2023/03/16 10:54:39;;;;;;;4.22;1.67;;;;;;;6.49;62.66;101569.75;5000117;28;20580;-43
2023/03/16 10:57:24;;;;;;;2.63;1.35;;;;;;;6.53;61.69;101576.81;4999110;28;20204;-43
2023/03/16 10:59:52;;;;;;;6.38;1.80;;;;;;;6.58;61.79;101567.03;4998618;28;20181;-44
2023/03/16 11:02:26;;;;;;;4.32;1.50;;;;;;;6.44;61.26;101566.25;4997054;28;20690;-43
2023/03/16 11:04:53;;;;;;;4.10;1.75;;;;;;;6.32;61.12;101556.63;4996960;28;20263;-43
2023/03/16 11:07:22;;;;;;;3.88;1.30;;;;;;;6.48;61.65;101559.16;4999638;28;20656;-42
2023/03/16 11:09:50;;;;;;;5.28;1.92;;;;;;;6.50;61.89;101552.91;5006388;28;20267;-42
2023/03/16 11:12:22;;;;;;;7.45;1.60;;;;;;;6.52;61.87;101559.09;4999394;28;20177;-45
2023/03/16 11:14:48;;;;;;;4.05;1.55;;;;;;;6.41;61.51;101547.69;4994755;28;20700;-44
2023/03/16 11:17:51;;;;;;;3.55;1.55;;;;;;;6.41;61.75;101537.03;4998268;28;20237;-43
2023/03/16 11:20:22;;;;;;;2.85;1.27;;;;;;;6.43;61.16;101537.91;4977771;28;20193;-43
2023/03/16 11:22:48;;;;;;;4.45;2.25;;;;;;;6.36;61.21;101530.84;4996583;28;20188;-44
2023/03/16 11:25:24;;;;;;;2.65;1.38;;;;;;;6.50;61.37;101536.06;4998988;28;20963;-43
2023/03/16 11:28:27;;;;;;;4.65;1.55;;;;;;;6.44;60.94;101521.00;4997429;28;20264;-42
2023/03/16 11:31:01;;;;;;;6.20;1.60;;;;;;;6.43;60.80;101508.63;5001511;28;20550;-45
2023/03/16 11:33:29;;;;;;;5.18;1.40;;;;;;;6.57;60.71;101508.47;5001635;28;20235;-44
2023/03/16 11:36:19;;;;;;;5.95;1.60;;;;;;;6.57;60.24;101509.34;4999505;28;20173;-43